Time;durP1;ratioP1;P1;durP2;ratioP2;P2;SDS_P1;SDS_P2;PMS_P1;PMS_P2;Temp;Humidity;BMP_temperature;BMP_pressure;BME280_temperature;BME280_humidity;BME280_pressure;Samples;Min_cycle;Max_cycle;Signal;HPM_P1;HPM_P2
2021/11/20 00:01:49;;;;;;;8.20;5.88;;;;;;;-145.06;0.00;60892.56;4906761;28;20033;-88
2021/11/20 00:04:30;;;;;;;8.02;5.57;;;;;;;-145.06;0.00;60892.56;4903873;28;20478;-87
2021/11/20 00:07:09;;;;;;;7.55;5.40;;;;;;;11.94;0.00;60892.56;4908863;28;20039;-88
2021/11/20 00:09:49;;;;;;;8.82;5.95;;;;;;;-145.06;0.00;60892.56;4915503;28;20040;-88
2021/11/20 00:12:30;;;;;;;8.80;5.90;;;;;;;-145.06;0.00;60892.56;4906904;28;20063;-88
2021/11/20 00:15:14;;;;;;;9.10;6.25;;;;;;;-145.06;0.00;60892.56;4907649;28;20024;-87
2021/11/20 00:17:55;;;;;;;8.50;6.13;;;;;;;-145.06;0.00;60892.56;4909825;28;20023;-88
2021/11/20 00:20:38;;;;;;;10.73;6.15;;;;;;;-145.06;0.00;60892.56;4905440;28;20281;-88
2021/11/20 00:23:24;;;;;;;8.82;5.97;;;;;;;-145.06;0.00;60892.56;4913231;28;20301;-88
2021/11/20 00:26:06;;;;;;;8.40;5.82;;;;;;;-145.06;0.00;60892.56;4903570;28;20032;-88
2021/11/20 00:31:40;;;;;;;8.63;5.90;;;;;;;11.88;0.00;60892.56;4903328;28;20032;-88
2021/11/20 00:34:23;;;;;;;8.85;6.05;;;;;;;-145.06;0.00;60892.56;4913703;28;20028;-88
2021/11/20 00:37:03;;;;;;;7.97;5.13;;;;;;;-145.06;0.00;60892.56;4914969;28;20039;-89
2021/11/20 00:39:42;;;;;;;7.82;5.28;;;;;;;-145.06;0.00;60892.56;4903203;28;20111;-89
2021/11/20 00:42:22;;;;;;;7.22;5.18;;;;;;;-145.06;0.00;60892.56;4919640;28;20488;-88
2021/11/20 00:45:01;;;;;;;6.70;4.83;;;;;;;11.86;0.00;60892.56;4913077;28;20033;-87
2021/11/20 00:47:40;;;;;;;10.03;6.47;;;;;;;11.91;0.00;60892.56;4904474;28;20302;-86
2021/11/20 00:50:21;;;;;;;7.53;5.47;;;;;;;11.87;0.00;60892.56;4904638;28;20378;-88
2021/11/20 00:53:01;;;;;;;8.38;6.05;;;;;;;-145.06;0.00;60892.56;4898739;28;20028;-88
2021/11/20 00:55:41;;;;;;;8.80;6.15;;;;;;;187.52;0.00;60892.56;4908435;28;20028;-89
2021/11/20 00:58:21;;;;;;;9.35;6.07;;;;;;;11.84;0.00;60892.56;4910039;28;20032;-88
2021/11/20 01:01:03;;;;;;;8.48;5.45;;;;;;;-145.06;0.00;60892.56;4895362;28;20036;-88
2021/11/20 01:03:43;;;;;;;8.75;6.10;;;;;;;11.84;0.00;60892.56;4905081;28;20032;-88
2021/11/20 01:06:23;;;;;;;9.48;6.43;;;;;;;13.28;0.00;60892.56;4895779;28;20111;-88
2021/11/20 01:09:03;;;;;;;8.20;5.40;;;;;;;11.82;0.00;60892.56;4899370;28;20040;-88
2021/11/20 01:11:56;;;;;;;8.48;5.47;;;;;;;11.81;0.00;60892.56;4904718;28;20044;-88
2021/11/20 01:14:37;;;;;;;9.10;6.40;;;;;;;11.81;0.00;60892.56;4907501;28;20024;-89
2021/11/20 01:17:19;;;;;;;7.32;5.20;;;;;;;-145.06;0.00;60892.56;4910193;28;20635;-88
2021/11/20 01:19:59;;;;;;;8.50;6.07;;;;;;;11.81;0.00;60892.56;4895584;28;20036;-89
2021/11/20 01:22:38;;;;;;;9.23;6.30;;;;;;;-145.06;0.00;60892.56;4903356;28;20032;-89
2021/11/20 01:25:18;;;;;;;8.15;5.53;;;;;;;-145.06;0.00;60892.56;4894616;28;20028;-88
2021/11/20 01:27:57;;;;;;;7.97;5.65;;;;;;;11.98;0.00;60892.56;4895093;28;20085;-88
2021/11/20 01:30:37;;;;;;;9.30;6.32;;;;;;;11.81;0.00;60892.56;4909196;28;20028;-88
2021/11/20 01:33:17;;;;;;;7.65;5.32;;;;;;;-145.06;0.00;60892.56;4906287;28;20110;-88
2021/11/20 01:35:57;;;;;;;8.10;5.82;;;;;;;-145.06;0.00;60892.56;4902216;28;20471;-88
2021/11/20 01:38:36;;;;;;;8.32;5.78;;;;;;;-145.06;0.00;60892.56;4901055;28;20032;-88
2021/11/20 01:41:15;;;;;;;7.07;4.78;;;;;;;11.81;0.00;60892.56;4902406;28;20039;-88
2021/11/20 01:43:57;;;;;;;8.18;5.88;;;;;;;11.81;0.00;60892.56;4903863;28;20033;-89
2021/11/20 01:46:39;;;;;;;7.35;5.07;;;;;;;-145.06;0.00;60892.56;4906068;28;20031;-89
2021/11/20 01:49:34;;;;;;;7.80;5.43;;;;;;;11.79;0.00;60892.56;4912973;28;20028;-88
2021/11/20 01:52:37;;;;;;;7.60;5.18;;;;;;;11.77;0.00;60892.56;4894808;28;20040;-88
2021/11/20 01:55:41;;;;;;;9.23;5.90;;;;;;;11.77;0.00;60892.56;4900598;28;20028;-89
2021/11/20 01:58:38;;;;;;;7.63;5.60;;;;;;;-145.06;0.00;60892.56;4894921;28;20497;-88
2021/11/20 02:01:44;;;;;;;8.13;5.25;;;;;;;-145.06;0.00;60892.56;4893944;28;20037;-89
2021/11/20 02:04:39;;;;;;;7.22;4.88;;;;;;;-145.06;0.00;60892.56;4902741;28;20027;-87
2021/11/20 02:07:35;;;;;;;7.50;5.00;;;;;;;11.98;0.00;60892.56;4910907;28;20032;-88
2021/11/20 02:10:33;;;;;;;7.95;5.30;;;;;;;11.76;0.00;60892.56;4899447;28;20367;-89
2021/11/20 02:13:19;;;;;;;6.88;4.78;;;;;;;-145.06;0.00;60892.56;4909438;28;20478;-88
2021/11/20 02:16:14;;;;;;;6.60;4.70;;;;;;;11.75;0.00;60892.56;4903528;28;20032;-88
2021/11/20 02:18:57;;;;;;;6.25;4.20;;;;;;;11.77;0.00;60892.56;4894140;28;20029;-88
2021/11/20 02:21:43;;;;;;;6.95;4.78;;;;;;;-145.06;0.00;60892.56;4897723;28;20028;-89
2021/11/20 02:24:22;;;;;;;6.05;4.40;;;;;;;11.98;0.00;60892.56;4900304;28;20028;-87
2021/11/20 02:27:06;;;;;;;7.53;4.50;;;;;;;11.80;0.00;60892.56;4898691;28;20253;-88
2021/11/20 02:29:46;;;;;;;6.05;4.47;;;;;;;11.83;0.00;60892.56;4899494;28;20028;-88
2021/11/20 02:32:25;;;;;;;6.55;4.53;;;;;;;11.98;0.00;60892.56;4895285;28;20032;-88
2021/11/20 02:35:04;;;;;;;6.47;4.93;;;;;;;-145.06;0.00;60892.56;4909015;28;20489;-88
2021/11/20 02:37:44;;;;;;;5.18;3.75;;;;;;;11.85;0.00;60892.56;4916322;28;20279;-88
2021/11/20 02:40:25;;;;;;;6.47;4.32;;;;;;;13.28;0.00;60892.56;4896118;28;20036;-88
2021/11/20 02:43:05;;;;;;;5.78;4.05;;;;;;;11.86;0.00;60892.56;4916488;28;20386;-88
2021/11/20 02:45:49;;;;;;;6.50;4.22;;;;;;;11.88;0.00;60892.56;4902668;28;20025;-88
2021/11/20 02:48:28;;;;;;;6.97;4.68;;;;;;;11.98;0.00;60892.56;4895632;28;20036;-88
2021/11/20 02:51:14;;;;;;;5.83;4.30;;;;;;;-145.06;0.00;60892.56;4897616;28;20378;-88
2021/11/20 02:54:01;;;;;;;6.85;4.93;;;;;;;11.79;0.00;60892.56;4898487;28;20040;-88
2021/11/20 02:56:45;;;;;;;8.63;6.13;;;;;;;21.08;0.00;60892.56;4914053;28;20020;-87
2021/11/20 02:59:25;;;;;;;7.85;5.70;;;;;;;-145.06;0.00;60892.56;4909888;28;20027;-87
2021/11/20 03:02:06;;;;;;;8.73;6.38;;;;;;;11.71;0.00;60892.56;4916667;28;20029;-88
2021/11/20 03:04:45;;;;;;;7.65;5.50;;;;;;;-145.06;0.00;60892.56;4912140;28;20040;-88
2021/11/20 03:07:24;;;;;;;8.10;5.30;;;;;;;11.82;0.00;60892.56;4901507;28;20031;-87
2021/11/20 03:10:05;;;;;;;7.47;5.60;;;;;;;11.74;0.00;60892.56;4902069;28;20037;-88
2021/11/20 03:12:44;;;;;;;7.15;5.18;;;;;;;-145.06;0.00;60892.56;4917425;28;20375;-87
2021/11/20 03:15:23;;;;;;;8.93;6.30;;;;;;;-145.06;0.00;60892.56;4907981;28;20379;-88
2021/11/20 03:18:02;;;;;;;9.60;6.87;;;;;;;-145.06;0.00;60892.56;4911688;28;20039;-88
2021/11/20 03:20:43;;;;;;;7.47;5.23;;;;;;;-145.06;0.00;60892.56;4905481;28;20032;-88
2021/11/20 03:23:32;;;;;;;10.23;6.25;;;;;;;-145.06;0.00;60892.56;4904496;28;20032;-87
2021/11/20 03:26:11;;;;;;;9.05;5.78;;;;;;;-145.06;0.00;60892.56;4904139;28;20109;-88
2021/11/20 03:28:50;;;;;;;7.15;5.07;;;;;;;-145.06;0.00;60892.56;4902247;28;20111;-88
2021/11/20 03:31:29;;;;;;;7.32;4.90;;;;;;;-145.06;0.00;60892.56;4897211;28;20371;-89
2021/11/20 03:34:09;;;;;;;5.95;4.25;;;;;;;15.88;0.00;60892.56;4905819;28;20040;-88
2021/11/20 03:36:48;;;;;;;;;;;;;;;-145.06;0.00;60892.56;4907287;28;20036;-87
2021/11/20 03:39:28;;;;;;;5.03;3.67;;;;;;;-145.06;0.00;60892.56;4924483;28;19912;-88
2021/11/20 03:42:07;;;;;;;5.93;4.00;;;;;;;-145.06;0.00;60892.56;4913182;28;20032;-87
2021/11/20 03:44:47;;;;;;;4.32;3.25;;;;;;;-145.06;0.00;60892.56;4911678;28;20027;-88
2021/11/20 03:47:26;;;;;;;4.38;3.38;;;;;;;-145.06;0.00;60892.56;4904397;28;20040;-87
2021/11/20 03:50:08;;;;;;;5.57;3.67;;;;;;;187.52;0.00;60892.56;4908426;28;20633;-87
2021/11/20 03:52:47;;;;;;;4.30;3.17;;;;;;;-145.06;0.00;60892.56;4914569;28;20027;-88
2021/11/20 03:55:30;;;;;;;5.03;3.70;;;;;;;187.52;0.00;60892.56;4916729;28;20028;-88
2021/11/20 03:58:11;;;;;;;4.60;3.50;;;;;;;187.52;0.00;60892.56;4907263;28;20410;-87
2021/11/20 04:00:57;;;;;;;4.82;3.45;;;;;;;-145.06;0.00;60892.56;4909044;28;20024;-87
2021/11/20 04:03:39;;;;;;;5.68;3.75;;;;;;;-145.06;0.00;60892.56;4898231;28;20024;-88
2021/11/20 04:06:19;;;;;;;5.22;3.83;;;;;;;-145.06;0.00;60892.56;4909444;28;20052;-88
2021/11/20 04:08:58;;;;;;;;;;;;;;;-145.06;0.00;60892.56;4909942;28;20032;-88
2021/11/20 04:11:39;;;;;;;3.88;2.92;;;;;;;-145.06;0.00;60892.56;4904506;28;19912;-87
2021/11/20 04:14:20;;;;;;;4.63;3.03;;;;;;;-145.06;0.00;60892.56;4924356;28;20028;-87
2021/11/20 04:16:59;;;;;;;3.78;3.05;;;;;;;-145.06;0.00;60892.56;4908680;28;20025;-87
2021/11/20 04:19:38;;;;;;;3.00;2.43;;;;;;;-145.06;0.00;60892.56;4897984;28;20472;-87
2021/11/20 04:22:17;;;;;;;3.83;2.87;;;;;;;187.52;0.00;60892.56;4897469;28;20270;-88
2021/11/20 04:24:56;;;;;;;4.53;3.67;;;;;;;11.98;0.00;60892.56;4912121;28;20024;-88
2021/11/20 04:27:35;;;;;;;4.45;3.17;;;;;;;-145.06;0.00;60892.56;4905767;28;20822;-87
2021/11/20 04:30:15;;;;;;;4.83;3.27;;;;;;;187.52;0.00;60892.56;4901566;28;20036;-87
2021/11/20 04:32:55;;;;;;;4.80;3.50;;;;;;;21.08;0.00;60892.56;4908412;28;20397;-87
2021/11/20 04:35:35;;;;;;;5.00;3.47;;;;;;;-145.06;0.00;60892.56;4908789;28;20028;-88
2021/11/20 04:38:15;;;;;;;4.82;3.42;;;;;;;-145.06;0.00;60892.56;4897230;28;20478;-87
2021/11/20 04:40:54;;;;;;;4.85;3.53;;;;;;;-145.06;0.00;60892.56;4898334;28;20024;-87
2021/11/20 04:43:33;;;;;;;4.73;3.40;;;;;;;-145.06;0.00;60892.56;4911102;28;20031;-87
2021/11/20 04:46:15;;;;;;;4.38;3.25;;;;;;;-145.06;0.00;60892.56;4912749;28;20390;-87
2021/11/20 04:48:54;;;;;;;4.05;3.15;;;;;;;-145.06;0.00;60892.56;4905067;28;20032;-88
2021/11/20 04:51:33;;;;;;;3.88;3.05;;;;;;;187.52;0.00;60892.56;4906001;28;20031;-87
2021/11/20 04:54:13;;;;;;;4.95;3.45;;;;;;;-145.06;0.00;60892.56;4900957;28;20028;-87
2021/11/20 04:56:51;;;;;;;4.25;3.22;;;;;;;-145.06;0.00;60892.56;4902780;28;20028;-88
2021/11/20 04:59:31;;;;;;;5.13;3.50;;;;;;;-145.06;0.00;60892.56;4909487;28;20469;-88
2021/11/20 05:02:11;;;;;;;5.25;3.38;;;;;;;-145.06;0.00;60892.56;4908295;28;20127;-87
2021/11/20 05:04:50;;;;;;;5.53;2.97;;;;;;;-145.06;0.00;60892.56;4902438;28;20115;-88
2021/11/20 05:07:29;;;;;;;4.40;3.27;;;;;;;-145.06;0.00;60892.56;4907889;28;20119;-88
2021/11/20 05:10:10;;;;;;;3.63;2.70;;;;;;;-145.06;0.00;60892.56;4901803;28;20274;-88
2021/11/20 05:12:48;;;;;;;4.03;2.80;;;;;;;-145.06;0.00;60892.56;4913802;28;20382;-87
2021/11/20 05:15:30;;;;;;;3.33;2.83;;;;;;;-145.06;0.00;60892.56;4904705;28;20470;-88
2021/11/20 05:18:09;;;;;;;3.35;2.55;;;;;;;-145.06;0.00;60892.56;4909558;28;20607;-88
2021/11/20 05:20:50;;;;;;;4.97;3.22;;;;;;;-145.06;0.00;60892.56;4894897;28;20494;-88
2021/11/20 05:23:32;;;;;;;3.40;2.97;;;;;;;-145.06;0.00;60892.56;4905415;28;20481;-87
2021/11/20 05:26:12;;;;;;;3.45;2.83;;;;;;;-145.06;0.00;60892.56;4896183;28;20036;-88
2021/11/20 05:29:02;;;;;;;3.30;2.70;;;;;;;-145.06;0.00;60892.56;4897719;28;20040;-88
2021/11/20 05:31:42;;;;;;;3.72;2.97;;;;;;;-145.06;0.00;60892.56;4913836;28;20040;-87
2021/11/20 05:34:21;;;;;;;3.30;2.90;;;;;;;-145.06;0.00;60892.56;4905517;28;20374;-88
2021/11/20 05:37:00;;;;;;;3.83;2.88;;;;;;;-145.06;0.00;60892.56;4903339;28;20275;-88
2021/11/20 05:39:39;;;;;;;3.33;2.73;;;;;;;11.50;0.00;60892.56;4909679;28;20474;-88
2021/11/20 05:42:19;;;;;;;4.90;3.83;;;;;;;-145.06;0.00;60892.56;4900034;28;20040;-87
2021/11/20 05:44:58;;;;;;;4.88;4.00;;;;;;;-145.06;0.00;60892.56;4913084;28;20126;-87
2021/11/20 05:47:37;;;;;;;5.03;3.65;;;;;;;-145.06;0.00;60892.56;4904559;28;20370;-88
2021/11/20 05:50:19;;;;;;;4.65;3.35;;;;;;;-145.06;0.00;60892.56;4919803;28;20119;-88
2021/11/20 05:52:58;;;;;;;4.55;3.45;;;;;;;-145.06;0.00;60892.56;4903626;28;20489;-88
2021/11/20 05:55:37;;;;;;;4.10;3.07;;;;;;;-145.06;0.00;60892.56;4910981;28;20024;-88
2021/11/20 05:58:20;;;;;;;4.20;2.90;;;;;;;-145.06;0.00;60892.56;4913049;28;20028;-89
2021/11/20 06:01:04;;;;;;;3.28;2.67;;;;;;;-145.06;0.00;60892.56;4912468;28;20032;-87
2021/11/20 06:03:43;;;;;;;3.97;3.00;;;;;;;-145.06;0.00;60892.56;4907436;28;20027;-89
2021/11/20 06:06:22;;;;;;;3.45;2.80;;;;;;;-145.06;0.00;60892.56;4912343;28;20060;-89
2021/11/20 06:09:02;;;;;;;3.75;2.95;;;;;;;-145.06;0.00;60892.56;4905126;28;20385;-88
2021/11/20 06:11:42;;;;;;;;;;;;;;;-145.06;0.00;60892.56;4904069;28;20481;-87
2021/11/20 06:14:21;;;;;;;3.35;2.50;;;;;;;-145.06;0.00;60892.56;4912822;28;19959;-88
2021/11/20 06:17:00;;;;;;;3.13;2.53;;;;;;;-145.06;0.00;60892.56;4916648;28;20051;-88
2021/11/20 06:19:39;;;;;;;3.20;2.55;;;;;;;-145.06;0.00;60892.56;4912706;28;20032;-88
2021/11/20 06:22:20;;;;;;;4.07;3.07;;;;;;;-145.06;0.00;60892.56;4908549;28;20682;-88
2021/11/20 06:25:00;;;;;;;6.05;3.22;;;;;;;-145.06;0.00;60892.56;4913672;28;20278;-88
2021/11/20 06:27:39;;;;;;;5.00;3.38;;;;;;;-145.06;0.00;60892.56;4908068;28;20028;-88
2021/11/20 06:30:21;;;;;;;4.05;3.03;;;;;;;-145.06;0.00;60892.56;4898171;28;20032;-88
2021/11/20 06:33:00;;;;;;;4.40;3.28;;;;;;;-145.06;0.00;60892.56;4910223;28;20024;-88
2021/11/20 06:35:40;;;;;;;4.95;3.75;;;;;;;187.52;0.00;60892.56;4906210;28;20039;-88
2021/11/20 06:38:20;;;;;;;3.97;3.30;;;;;;;-145.06;0.00;60892.56;4926938;28;20100;-88
2021/11/20 06:41:00;;;;;;;4.35;3.50;;;;;;;-145.06;0.00;60892.56;4895541;28;20032;-87
2021/11/20 06:43:40;;;;;;;4.32;3.17;;;;;;;-145.06;0.00;60892.56;4904428;28;20040;-88
2021/11/20 06:46:20;;;;;;;3.92;3.13;;;;;;;187.52;0.00;60892.56;4916675;28;20024;-89
2021/11/20 06:49:00;;;;;;;;;;;;;;;-145.06;0.00;60892.56;4901221;28;20036;-88
2021/11/20 06:51:39;;;;;;;3.17;2.65;;;;;;;-145.06;0.00;60892.56;4910538;28;19959;-88
2021/11/20 06:54:18;;;;;;;3.95;2.97;;;;;;;-145.06;0.00;60892.56;4914297;28;20023;-89
2021/11/20 06:57:09;;;;;;;4.60;3.38;;;;;;;-145.06;0.00;60892.56;4909972;28;20517;-87
2021/11/20 07:02:46;;;;;;;4.03;3.00;;;;;;;-145.06;0.00;60892.56;4914788;28;20530;-87
2021/11/20 07:05:27;;;;;;;4.83;3.50;;;;;;;11.42;0.00;60892.56;4912486;28;20032;-88
2021/11/20 07:08:08;;;;;;;5.05;3.47;;;;;;;-145.06;0.00;60892.56;4911611;28;20025;-88
2021/11/20 07:10:47;;;;;;;4.47;3.30;;;;;;;-145.06;0.00;60892.56;4909791;28;20366;-87
2021/11/20 07:13:26;;;;;;;5.70;3.78;;;;;;;-145.06;0.00;60892.56;4903753;28;20024;-88
2021/11/20 07:16:09;;;;;;;6.47;4.05;;;;;;;-145.06;0.00;60892.56;4905588;28;20032;-89
2021/11/20 07:18:49;;;;;;;5.65;4.07;;;;;;;-145.06;0.00;60892.56;4909174;28;20075;-88
2021/11/20 07:21:28;;;;;;;7.03;4.50;;;;;;;-145.06;0.00;60892.56;4912519;28;20370;-88
2021/11/20 07:24:09;;;;;;;;;;;;;;;-145.06;0.00;60892.56;4903115;28;20033;-90
2021/11/20 07:26:50;;;;;;;6.18;4.20;;;;;;;-145.06;0.00;60892.56;4909637;28;19919;-89
2021/11/20 07:29:29;;;;;;;5.35;3.70;;;;;;;-145.06;0.00;60892.56;4920522;28;20465;-88
2021/11/20 07:32:08;;;;;;;6.18;4.60;;;;;;;-145.06;0.00;60892.56;4922631;28;20039;-89
2021/11/20 07:34:47;;;;;;;4.55;3.45;;;;;;;-145.06;0.00;60892.56;4927698;28;20103;-89
2021/11/20 07:37:26;;;;;;;5.57;3.80;;;;;;;-145.06;0.00;60892.56;4914744;28;20107;-88
2021/11/20 07:40:07;;;;;;;5.18;3.60;;;;;;;-145.06;0.00;60892.56;4902006;28;20032;-88
2021/11/20 07:42:46;;;;;;;5.25;3.95;;;;;;;-145.06;0.00;60892.56;4896701;28;20040;-89
2021/11/20 07:45:25;;;;;;;4.50;3.53;;;;;;;-145.06;0.00;60892.56;4910412;28;20024;-89
2021/11/20 07:48:06;;;;;;;4.40;3.33;;;;;;;-145.06;0.00;60892.56;4911843;28;20278;-89
2021/11/20 07:50:47;;;;;;;5.18;3.58;;;;;;;-145.06;0.00;60892.56;4911703;28;20028;-88
2021/11/20 07:53:26;;;;;;;3.90;3.10;;;;;;;-145.06;0.00;60892.56;4908007;28;20036;-89
2021/11/20 07:56:06;;;;;;;3.95;3.35;;;;;;;-145.06;0.00;60892.56;4902660;28;20025;-89
2021/11/20 07:58:46;;;;;;;5.20;3.75;;;;;;;-145.06;0.00;60892.56;4914698;28;20040;-89
2021/11/20 08:01:26;;;;;;;5.55;3.80;;;;;;;-145.06;0.00;60892.56;4913684;28;20478;-89
2021/11/20 08:04:05;;;;;;;3.90;2.80;;;;;;;-145.06;0.00;60892.56;4901173;28;20060;-88
2021/11/20 08:06:44;;;;;;;3.90;3.10;;;;;;;-145.06;0.00;60892.56;4898680;28;20485;-89
2021/11/20 08:09:23;;;;;;;4.97;3.35;;;;;;;-145.06;0.00;60892.56;4908135;28;20313;-88
2021/11/20 08:12:03;;;;;;;3.28;2.85;;;;;;;-145.06;0.00;60892.56;4896205;28;20478;-88
2021/11/20 08:14:42;;;;;;;4.35;3.40;;;;;;;-145.06;0.00;60892.56;4911966;28;20035;-88
2021/11/20 08:17:21;;;;;;;4.65;3.25;;;;;;;-145.06;0.00;60892.56;4908749;28;20028;-89
2021/11/20 08:20:00;;;;;;;4.53;3.07;;;;;;;-145.06;0.00;60892.56;4897018;28;20032;-88
2021/11/20 08:22:40;;;;;;;4.63;3.13;;;;;;;-145.06;0.00;60892.56;4895653;28;20314;-89
2021/11/20 08:25:23;;;;;;;4.43;3.33;;;;;;;-145.06;0.00;60892.56;4899401;28;20111;-89
2021/11/20 08:28:03;;;;;;;5.47;3.58;;;;;;;-145.06;0.00;60892.56;4910024;28;20039;-86
2021/11/20 08:30:43;;;;;;;5.60;3.55;;;;;;;-145.06;0.00;60892.56;4905204;28;20732;-89
2021/11/20 08:33:22;;;;;;;5.35;3.70;;;;;;;-145.06;0.00;60892.56;4921680;28;20060;-89
2021/11/20 08:36:02;;;;;;;4.03;3.33;;;;;;;-145.06;0.00;60892.56;4910339;28;20020;-89
2021/11/20 08:38:41;;;;;;;4.15;3.03;;;;;;;-145.06;0.00;60892.56;4903625;28;20072;-88
2021/11/20 08:41:20;;;;;;;4.50;3.30;;;;;;;-145.06;0.00;60892.56;4898776;28;20068;-89
2021/11/20 08:43:59;;;;;;;3.57;2.83;;;;;;;-145.06;0.00;60892.56;4901459;28;20383;-89
2021/11/20 08:46:41;;;;;;;4.53;3.03;;;;;;;-145.06;0.00;60892.56;4917510;28;20283;-88
2021/11/20 08:49:20;;;;;;;4.10;3.05;;;;;;;-145.06;0.00;60892.56;4913325;28;20036;-88
2021/11/20 08:52:00;;;;;;;4.07;3.28;;;;;;;-145.06;0.00;60892.56;4899372;28;20486;-89
2021/11/20 08:54:39;;;;;;;4.18;2.95;;;;;;;-145.06;0.00;60892.56;4911453;28;20020;-89
2021/11/20 08:57:18;;;;;;;4.63;3.45;;;;;;;-145.06;0.00;60892.56;4909211;28;20029;-88
2021/11/20 08:59:57;;;;;;;4.70;3.43;;;;;;;-145.06;0.00;60892.56;4897172;28;20371;-88
2021/11/20 09:02:41;;;;;;;4.70;3.45;;;;;;;-145.06;0.00;60892.56;4908914;28;20023;-89
2021/11/20 09:05:24;;;;;;;4.72;3.60;;;;;;;-145.06;0.00;60892.56;4907161;28;20033;-88
2021/11/20 09:08:13;;;;;;;4.45;3.33;;;;;;;-145.06;0.00;60892.56;4913115;28;20067;-88
2021/11/20 09:11:19;;;;;;;4.57;2.97;;;;;;;-145.06;0.00;60892.56;4905725;28;20036;-88
2021/11/20 09:14:08;;;;;;;5.03;3.75;;;;;;;-145.06;0.00;60892.56;4910295;28;20371;-88
2021/11/20 09:16:47;;;;;;;6.22;4.30;;;;;;;-145.06;0.00;60892.56;4903672;28;20024;-89
2021/11/20 09:19:31;;;;;;;6.15;4.00;;;;;;;-145.06;0.00;60892.56;4895509;28;20028;-88
2021/11/20 09:22:11;;;;;;;5.93;4.07;;;;;;;-145.06;0.00;60892.56;4903613;28;20035;-89
2021/11/20 09:24:50;;;;;;;6.30;3.75;;;;;;;-145.06;0.00;60892.56;4914805;28;20063;-88
2021/11/20 09:27:29;;;;;;;5.27;3.70;;;;;;;-145.06;0.00;60892.56;4913471;28;20055;-89
2021/11/20 09:30:12;;;;;;;6.80;4.50;;;;;;;-145.06;0.00;60892.56;4914653;28;20306;-87
2021/11/20 09:32:51;;;;;;;7.13;4.65;;;;;;;11.36;0.00;60892.56;4914623;28;20024;-89
2021/11/20 09:35:31;;;;;;;6.50;4.15;;;;;;;11.37;0.00;60892.56;4913975;28;20055;-89
2021/11/20 09:38:12;;;;;;;5.97;3.92;;;;;;;11.36;0.00;60892.56;4916700;28;20060;-88
2021/11/20 09:40:57;;;;;;;6.75;4.30;;;;;;;-145.06;0.00;60892.56;4901842;28;20032;-88
2021/11/20 09:43:39;;;;;;;5.18;3.90;;;;;;;-145.06;0.00;60892.56;4913731;28;20039;-88
2021/11/20 09:46:37;;;;;;;6.07;4.18;;;;;;;11.38;0.00;60892.56;4926333;28;20028;-87
2021/11/20 09:49:25;;;;;;;6.43;4.45;;;;;;;-145.06;0.00;60892.56;4905386;28;20083;-88
2021/11/20 09:52:06;;;;;;;7.25;3.88;;;;;;;-145.06;0.00;60892.56;4909531;28;20035;-88
2021/11/20 09:54:47;;;;;;;6.32;4.05;;;;;;;-145.06;0.00;60892.56;4909142;28;20044;-88
2021/11/20 09:57:30;;;;;;;5.93;4.00;;;;;;;-145.06;0.00;60892.56;4906855;28;20369;-88
2021/11/20 10:00:13;;;;;;;6.15;4.20;;;;;;;-145.06;0.00;60892.56;4909479;28;20035;-88
2021/11/20 10:03:00;;;;;;;7.43;4.18;;;;;;;-145.06;0.00;60892.56;4929059;28;20028;-88
2021/11/20 10:05:42;;;;;;;6.10;4.03;;;;;;;-145.06;0.00;60892.56;4933736;28;20437;-87
2021/11/20 10:08:26;;;;;;;6.28;4.20;;;;;;;15.88;0.00;60892.56;4911469;28;20028;-88
2021/11/20 10:11:08;;;;;;;6.18;4.18;;;;;;;-145.06;0.00;60892.56;4913359;28;20028;-87
2021/11/20 10:14:02;;;;;;;8.20;4.85;;;;;;;-145.06;0.00;60892.56;4913965;28;20028;-89
2021/11/20 10:17:22;;;;;;;6.57;4.60;;;;;;;187.52;0.00;60892.56;4928311;28;20024;-89
2021/11/20 10:20:29;;;;;;;6.53;4.07;;;;;;;-145.06;0.00;60892.56;4904643;28;20044;-88
2021/11/20 10:23:46;;;;;;;6.13;4.15;;;;;;;-145.06;0.00;60892.56;4906266;28;20426;-89
2021/11/20 10:26:46;;;;;;;5.47;3.70;;;;;;;-145.06;0.00;60892.56;4903160;28;20496;-89
2021/11/20 10:29:34;;;;;;;7.18;4.55;;;;;;;-145.06;0.00;60892.56;4899898;28;20025;-88
2021/11/20 10:32:21;;;;;;;6.90;4.65;;;;;;;-145.06;0.00;60892.56;4918772;28;20024;-89
2021/11/20 10:35:23;;;;;;;6.35;4.28;;;;;;;11.46;0.00;60892.56;4903535;28;20107;-88
2021/11/20 10:38:20;;;;;;;6.88;4.43;;;;;;;-145.06;0.00;60892.56;4910041;28;20070;-89
2021/11/20 10:41:11;;;;;;;7.22;4.68;;;;;;;-145.06;0.00;60892.56;4911329;28;20032;-88
2021/11/20 10:43:53;;;;;;;7.88;4.95;;;;;;;-145.06;0.00;60892.56;4913490;28;20032;-88
2021/11/20 10:46:46;;;;;;;6.40;4.65;;;;;;;-145.06;0.00;60892.56;4917240;28;20024;-89
2021/11/20 10:49:36;;;;;;;5.78;4.43;;;;;;;-145.06;0.00;60892.56;4913125;28;20098;-88
2021/11/20 10:52:45;;;;;;;6.30;4.35;;;;;;;-145.06;0.00;60892.56;4916367;28;20044;-89
2021/11/20 10:55:38;;;;;;;7.45;4.70;;;;;;;-145.06;0.00;60892.56;4915747;28;20032;-88
2021/11/20 10:58:31;;;;;;;6.65;4.80;;;;;;;-145.06;0.00;60892.56;4915085;28;20020;-89
2021/11/20 11:01:28;;;;;;;6.90;4.72;;;;;;;-145.06;0.00;60892.56;4907617;28;20036;-88
2021/11/20 11:04:26;;;;;;;7.35;4.85;;;;;;;11.46;0.00;60892.56;4914918;28;20024;-88
2021/11/20 11:07:21;;;;;;;7.05;5.00;;;;;;;-145.06;0.00;60892.56;4917511;28;20721;-88
2021/11/20 11:10:09;;;;;;;5.45;3.95;;;;;;;11.47;0.00;60892.56;4917940;28;20032;-88
2021/11/20 11:12:57;;;;;;;6.43;4.25;;;;;;;-145.06;0.00;60892.56;4912570;28;20027;-88
2021/11/20 11:16:07;;;;;;;5.72;4.00;;;;;;;-145.06;0.00;60892.56;4914932;28;20024;-88
2021/11/20 11:18:52;;;;;;;4.85;3.50;;;;;;;11.49;0.00;60892.56;4916246;28;20024;-88
2021/11/20 11:21:40;;;;;;;5.20;3.55;;;;;;;-145.06;0.00;60892.56;4916687;28;20024;-89
2021/11/20 11:24:31;;;;;;;6.18;3.92;;;;;;;-145.06;0.00;60892.56;4917575;28;20390;-88
2021/11/20 11:27:31;;;;;;;7.38;4.55;;;;;;;-145.06;0.00;60892.56;4915940;28;20036;-88
2021/11/20 11:30:10;;;;;;;;;;;;;;;-145.06;0.00;60892.56;4914929;28;20491;-88
2021/11/20 11:32:49;;;;;;;6.15;4.18;;;;;;;-145.06;0.00;60892.56;4931908;28;20239;-88
2021/11/20 11:35:47;;;;;;;5.63;3.80;;;;;;;-145.06;0.00;60892.56;4909770;28;20136;-89
2021/11/20 11:38:58;;;;;;;5.35;3.80;;;;;;;-145.06;0.00;60892.56;4908987;28;20387;-89
2021/11/20 11:41:53;;;;;;;4.63;3.40;;;;;;;-145.06;0.00;60892.56;4902807;28;20051;-89
2021/11/20 11:45:04;;;;;;;4.43;3.50;;;;;;;-145.06;0.00;60892.56;4904816;28;20036;-89
2021/11/20 11:48:11;;;;;;;4.95;3.60;;;;;;;-145.06;0.00;60892.56;4911003;28;20028;-88
2021/11/20 11:51:24;;;;;;;4.72;3.53;;;;;;;-145.06;0.00;60892.56;4911659;28;20028;-88
2021/11/20 11:54:06;;;;;;;4.55;3.38;;;;;;;-145.06;0.00;60892.56;4910520;28;20649;-88
2021/11/20 11:57:07;;;;;;;3.85;3.17;;;;;;;-145.06;0.00;60892.56;4905363;28;20028;-88
2021/11/20 11:59:50;;;;;;;5.25;3.00;;;;;;;-145.06;0.00;60892.56;4913070;28;20031;-88
2021/11/20 12:02:35;;;;;;;4.97;3.47;;;;;;;-145.06;0.00;60892.56;4908724;28;20036;-88
2021/11/20 12:05:31;;;;;;;4.82;3.20;;;;;;;-145.06;0.00;60892.56;4914051;28;20043;-88
2021/11/20 12:08:28;;;;;;;3.90;2.80;;;;;;;-145.06;0.00;60892.56;4919367;28;20032;-89
2021/11/20 12:11:10;;;;;;;5.05;3.33;;;;;;;-145.06;0.00;60892.56;4905964;28;20024;-88
2021/11/20 12:13:52;;;;;;;4.93;3.40;;;;;;;-145.06;0.00;60892.56;4905824;28;20028;-88
2021/11/20 12:16:59;;;;;;;5.65;4.07;;;;;;;-145.06;0.00;60892.56;4905958;28;20536;-89
2021/11/20 12:19:52;;;;;;;4.90;3.55;;;;;;;-145.06;0.00;60892.56;4910536;28;20028;-88
2021/11/20 12:22:51;;;;;;;6.07;4.22;;;;;;;-145.06;0.00;60892.56;4905248;28;20032;-89
2021/11/20 12:25:47;;;;;;;5.80;4.25;;;;;;;-145.06;0.00;60892.56;4912022;28;20555;-89
2021/11/20 12:28:29;;;;;;;5.63;3.90;;;;;;;-145.06;0.00;60892.56;4908206;28;20063;-88
2021/11/20 12:31:07;;;;;;;4.47;3.42;;;;;;;-145.06;0.00;60892.56;4910244;28;20063;-88
2021/11/20 12:33:56;;;;;;;5.07;3.78;;;;;;;-145.06;0.00;60892.56;4908773;28;20041;-89
2021/11/20 12:36:48;;;;;;;5.55;4.15;;;;;;;-145.06;0.00;60892.56;4913772;28;20032;-89
2021/11/20 12:39:47;;;;;;;3.88;3.08;;;;;;;-145.06;0.00;60892.56;4907639;28;20024;-88
2021/11/20 12:42:47;;;;;;;4.80;3.30;;;;;;;187.52;0.00;60892.56;4911790;28;20020;-89
2021/11/20 12:45:45;;;;;;;4.28;2.97;;;;;;;-145.06;0.00;60892.56;4900291;28;20032;-89
2021/11/20 12:48:40;;;;;;;4.10;3.15;;;;;;;-145.06;0.00;60892.56;4910291;28;20028;-89
2021/11/20 12:51:25;;;;;;;5.57;3.38;;;;;;;-145.06;0.00;60892.56;4910950;28;20457;-89
2021/11/20 12:54:25;;;;;;;5.65;3.80;;;;;;;-145.06;0.00;60892.56;4906090;28;20024;-89